sensor_id;sensor_type;location;lat;lon;timestamp;pressure;altitude;pressure_sealevel;temperature;humidity
3160;BME280;1591;51.486;7.146;2022-11-14T00:00:57;70878.53;;;5.17;100.00
3160;BME280;1591;51.486;7.146;2022-11-14T00:03:24;70873.38;;;5.13;100.00
3160;BME280;1591;51.486;7.146;2022-11-14T00:05:51;70875.34;;;5.10;100.00
3160;BME280;1591;51.486;7.146;2022-11-14T00:08:22;70873.84;;;5.04;100.00
3160;BME280;1591;51.486;7.146;2022-11-14T00:10:51;70864.44;;;5.00;100.00
3160;BME280;1591;51.486;7.146;2022-11-14T00:13:20;70868.09;;;4.99;100.00
3160;BME280;1591;51.486;7.146;2022-11-14T00:15:49;70856.97;;;4.94;100.00
3160;BME280;1591;51.486;7.146;2022-11-14T00:18:19;70854.69;;;4.92;100.00
3160;BME280;1591;51.486;7.146;2022-11-14T00:20:47;70855.81;;;4.93;100.00
3160;BME280;1591;51.486;7.146;2022-11-14T00:23:14;70850.63;;;4.88;100.00
3160;BME280;1591;51.486;7.146;2022-11-14T00:25:45;70850.09;;;4.88;100.00
3160;BME280;1591;51.486;7.146;2022-11-14T00:28:14;70844.34;;;4.82;100.00
3160;BME280;1591;51.486;7.146;2022-11-14T00:30:45;70835.91;;;4.77;100.00
3160;BME280;1591;51.486;7.146;2022-11-14T00:33:12;70836.28;;;4.75;100.00
3160;BME280;1591;51.486;7.146;2022-11-14T00:35:39;70828.28;;;4.68;100.00
3160;BME280;1591;51.486;7.146;2022-11-14T00:38:06;70826.16;;;4.69;100.00
3160;BME280;1591;51.486;7.146;2022-11-14T00:40:33;70826.97;;;4.65;100.00
3160;BME280;1591;51.486;7.146;2022-11-14T00:43:00;70820.81;;;4.62;100.00
3160;BME280;1591;51.486;7.146;2022-11-14T00:45:29;70816.41;;;4.60;100.00
3160;BME280;1591;51.486;7.146;2022-11-14T00:47:56;70816.81;;;4.58;100.00
3160;BME280;1591;51.486;7.146;2022-11-14T00:50:23;70821.22;;;4.60;100.00
3160;BME280;1591;51.486;7.146;2022-11-14T00:52:50;70816.63;;;4.56;100.00
3160;BME280;1591;51.486;7.146;2022-11-14T00:55:17;70812.22;;;4.54;100.00
3160;BME280;1591;51.486;7.146;2022-11-14T00:57:46;70813.34;;;4.55;100.00
3160;BME280;1591;51.486;7.146;2022-11-14T01:00:14;70812.22;;;4.54;100.00
3160;BME280;1591;51.486;7.146;2022-11-14T01:02:42;70807.59;;;4.50;100.00
3160;BME280;1591;51.486;7.146;2022-11-14T01:05:09;70807.44;;;4.48;100.00
3160;BME280;1591;51.486;7.146;2022-11-14T01:07:37;70804.00;;;4.45;100.00
3160;BME280;1591;51.486;7.146;2022-11-14T01:10:06;70798.00;;;4.44;100.00
3160;BME280;1591;51.486;7.146;2022-11-14T01:12:34;70795.72;;;4.42;100.00
3160;BME280;1591;51.486;7.146;2022-11-14T01:15:03;70800.00;;;4.41;100.00
3160;BME280;1591;51.486;7.146;2022-11-14T01:17:30;70800.00;;;4.41;100.00
3160;BME280;1591;51.486;7.146;2022-11-14T01:19:59;70794.25;;;4.36;100.00
3160;BME280;1591;51.486;7.146;2022-11-14T01:22:26;70788.13;;;4.33;100.00
3160;BME280;1591;51.486;7.146;2022-11-14T01:24:57;70781.22;;;4.27;100.00
3160;BME280;1591;51.486;7.146;2022-11-14T01:27:25;70779.91;;;4.24;100.00
3160;BME280;1591;51.486;7.146;2022-11-14T01:29:52;70779.16;;;4.21;100.00
3160;BME280;1591;51.486;7.146;2022-11-14T01:32:19;70778.19;;;4.22;100.00
3160;BME280;1591;51.486;7.146;2022-11-14T01:34:46;70765.09;;;4.20;100.00
3160;BME280;1591;51.486;7.146;2022-11-14T01:37:15;70773.19;;;4.20;100.00
3160;BME280;1591;51.486;7.146;2022-11-14T01:39:42;70774.31;;;4.21;100.00
3160;BME280;1591;51.486;7.146;2022-11-14T01:42:10;70782.59;;;4.24;100.00
3160;BME280;1591;51.486;7.146;2022-11-14T01:44:48;70774.91;;;4.22;100.00
3160;BME280;1591;51.486;7.146;2022-11-14T01:47:19;70769.34;;;4.19;100.00
3160;BME280;1591;51.486;7.146;2022-11-14T01:49:50;70769.75;;;4.17;100.00
3160;BME280;1591;51.486;7.146;2022-11-14T01:52:21;70764.75;;;4.15;100.00
3160;BME280;1591;51.486;7.146;2022-11-14T01:54:53;70762.28;;;4.11;100.00
3160;BME280;1591;51.486;7.146;2022-11-14T01:57:26;70761.72;;;4.10;100.00
3160;BME280;1591;51.486;7.146;2022-11-14T01:59:59;70762.28;;;4.11;100.00
3160;BME280;1591;51.486;7.146;2022-11-14T02:02:27;70760.56;;;4.09;100.00
3160;BME280;1591;51.486;7.146;2022-11-14T02:04:58;70758.84;;;4.08;100.00
3160;BME280;1591;51.486;7.146;2022-11-14T02:07:35;70755.56;;;4.07;100.00
3160;BME280;1591;51.486;7.146;2022-11-14T02:10:10;70760.97;;;4.07;100.00
3160;BME280;1591;51.486;7.146;2022-11-14T02:12:40;70756.56;;;4.06;100.00
3160;BME280;1591;51.486;7.146;2022-11-14T02:15:09;70758.50;;;4.02;100.00
3160;BME280;1591;51.486;7.146;2022-11-14T02:17:37;70749.09;;;3.99;100.00
3160;BME280;1591;51.486;7.146;2022-11-14T02:20:18;70746.22;;;3.96;100.00
3160;BME280;1591;51.486;7.146;2022-11-14T02:22:45;70745.50;;;3.93;100.00
3160;BME280;1591;51.486;7.146;2022-11-14T02:25:15;70744.34;;;3.92;100.00
3160;BME280;1591;51.486;7.146;2022-11-14T02:27:43;70810.84;;;3.94;100.00
3160;BME280;1591;51.486;7.146;2022-11-14T02:30:20;70744.28;;;3.99;100.00
3160;BME280;1591;51.486;7.146;2022-11-14T02:33:22;70753.09;;;4.02;100.00
3160;BME280;1591;51.486;7.146;2022-11-14T02:35:52;70757.88;;;4.09;100.00
3160;BME280;1591;51.486;7.146;2022-11-14T02:38:19;70764.84;;;4.08;100.00
3160;BME280;1591;51.486;7.146;2022-11-14T02:40:46;70760.97;;;4.07;100.00
3160;BME280;1591;51.486;7.146;2022-11-14T02:43:14;70758.84;;;4.08;100.00
3160;BME280;1591;51.486;7.146;2022-11-14T02:45:42;70756.56;;;4.06;100.00
3160;BME280;1591;51.486;7.146;2022-11-14T02:48:09;70751.97;;;4.01;100.00
3160;BME280;1591;51.486;7.146;2022-11-14T02:50:37;70750.09;;;3.97;100.00
3160;BME280;1591;51.486;7.146;2022-11-14T02:53:06;70747.63;;;3.93;100.00
3160;BME280;1591;51.486;7.146;2022-11-14T02:55:33;70737.63;;;3.89;100.00
3160;BME280;1591;51.486;7.146;2022-11-14T02:58:01;70735.75;;;3.85;100.00
3160;BME280;1591;51.486;7.146;2022-11-14T03:00:28;70727.88;;;3.80;100.00
3160;BME280;1591;51.486;7.146;2022-11-14T03:02:55;70729.59;;;3.82;100.00
3160;BME280;1591;51.486;7.146;2022-11-14T03:05:23;70730.00;;;3.80;100.00
3160;BME280;1591;51.486;7.146;2022-11-14T03:07:52;70721.59;;;3.75;100.00
3160;BME280;1591;51.486;7.146;2022-11-14T03:10:21;70725.25;;;3.73;100.00
3160;BME280;1591;51.486;7.146;2022-11-14T03:12:53;70726.00;;;3.76;100.00
3160;BME280;1591;51.486;7.146;2022-11-14T03:15:20;70787.72;;;3.71;100.00
3160;BME280;1591;51.486;7.146;2022-11-14T03:17:47;70708.56;;;3.66;100.00
3160;BME280;1591;51.486;7.146;2022-11-14T03:20:17;70703.56;;;3.64;100.00
3160;BME280;1591;51.486;7.146;2022-11-14T03:22:45;70707.25;;;3.62;100.00
3160;BME280;1591;51.486;7.146;2022-11-14T03:25:13;70720.25;;;3.71;100.00
3160;BME280;1591;51.486;7.146;2022-11-14T03:27:47;70722.38;;;3.71;100.00
3160;BME280;1591;51.486;7.146;2022-11-14T03:30:16;70716.00;;;3.72;100.00
3160;BME280;1591;51.486;7.146;2022-11-14T03:32:48;70717.97;;;3.69;100.00
3160;BME280;1591;51.486;7.146;2022-11-14T03:35:16;70707.41;;;3.65;100.00
3160;BME280;1591;51.486;7.146;2022-11-14T03:37:46;70707.06;;;3.60;100.00
3160;BME280;1591;51.486;7.146;2022-11-14T03:40:16;70704.78;;;3.58;100.00
3160;BME280;1591;51.486;7.146;2022-11-14T03:42:45;70689.47;;;3.47;100.00
3160;BME280;1591;51.486;7.146;2022-11-14T03:45:12;70683.00;;;3.39;100.00
3160;BME280;1591;51.486;7.146;2022-11-14T03:47:41;70680.72;;;3.37;100.00
3160;BME280;1591;51.486;7.146;2022-11-14T03:50:08;70670.72;;;3.33;100.00
3160;BME280;1591;51.486;7.146;2022-11-14T03:52:36;70667.84;;;3.30;100.00
3160;BME280;1591;51.486;7.146;2022-11-14T03:55:07;70665.41;;;3.26;100.00
3160;BME280;1591;51.486;7.146;2022-11-14T03:57:35;70660.22;;;3.21;100.00
3160;BME280;1591;51.486;7.146;2022-11-14T04:00:06;70661.97;;;3.22;100.00
3160;BME280;1591;51.486;7.146;2022-11-14T04:02:33;70666.94;;;3.25;100.00
3160;BME280;1591;51.486;7.146;2022-11-14T04:05:00;70732.06;;;3.22;100.00
3160;BME280;1591;51.486;7.146;2022-11-14T04:07:27;70664.66;;;3.22;100.00
3160;BME280;1591;51.486;7.146;2022-11-14T04:09:55;70669.66;;;3.25;100.00
3160;BME280;1591;51.486;7.146;2022-11-14T04:12:23;70667.50;;;3.25;100.00
3160;BME280;1591;51.486;7.146;2022-11-14T04:14:51;70665.41;;;3.26;100.00
3160;BME280;1591;51.486;7.146;2022-11-14T04:17:21;70666.38;;;3.24;100.00
3160;BME280;1591;51.486;7.146;2022-11-14T04:19:49;70669.06;;;3.24;100.00
3160;BME280;1591;51.486;7.146;2022-11-14T04:22:16;70658.53;;;3.19;100.00
3160;BME280;1591;51.486;7.146;2022-11-14T04:24:43;70661.56;;;3.25;100.00
3160;BME280;1591;51.486;7.146;2022-11-14T04:27:10;70661.38;;;3.22;100.00
3160;BME280;1591;51.486;7.146;2022-11-14T04:29:38;70656.22;;;3.17;100.00
3160;BME280;1591;51.486;7.146;2022-11-14T04:32:06;70655.66;;;3.17;100.00
3160;BME280;1591;51.486;7.146;2022-11-14T04:34:40;70649.13;;;3.16;100.00
3160;BME280;1591;51.486;7.146;2022-11-14T04:37:09;70655.47;;;3.14;100.00
3160;BME280;1591;51.486;7.146;2022-11-14T04:39:37;70650.47;;;3.12;100.00
3160;BME280;1591;51.486;7.146;2022-11-14T04:42:04;70647.06;;;3.09;100.00
3160;BME280;1591;51.486;7.146;2022-11-14T04:44:32;70647.63;;;3.10;100.00
3160;BME280;1591;51.486;7.146;2022-11-14T04:47:00;70638.63;;;3.04;100.00
3160;BME280;1591;51.486;7.146;2022-11-14T04:49:27;70637.13;;;2.98;100.00
3160;BME280;1591;51.486;7.146;2022-11-14T04:51:55;70637.72;;;2.99;100.00
3160;BME280;1591;51.486;7.146;2022-11-14T04:54:22;70636.16;;;3.00;100.00
3160;BME280;1591;51.486;7.146;2022-11-14T04:56:50;70644.03;;;3.04;100.00
3160;BME280;1591;51.486;7.146;2022-11-14T04:59:18;70639.03;;;3.02;100.00
3160;BME280;1591;51.486;7.146;2022-11-14T05:01:46;70643.63;;;3.06;100.00
3160;BME280;1591;51.486;7.146;2022-11-14T05:04:14;70642.88;;;3.03;100.00
3160;BME280;1591;51.486;7.146;2022-11-14T05:06:42;70639.59;;;3.03;100.00
3160;BME280;1591;51.486;7.146;2022-11-14T05:09:10;70644.03;;;3.04;100.00
3160;BME280;1591;51.486;7.146;2022-11-14T05:11:37;70641.91;;;3.05;100.00
3160;BME280;1591;51.486;7.146;2022-11-14T05:14:07;70639.03;;;3.02;100.00
3160;BME280;1591;51.486;7.146;2022-11-14T05:16:34;70630.28;;;2.92;100.00
3160;BME280;1591;51.486;7.146;2022-11-14T05:19:02;70635.44;;;2.97;100.00
3160;BME280;1591;51.486;7.146;2022-11-14T05:21:31;70636.00;;;2.97;100.00
3160;BME280;1591;51.486;7.146;2022-11-14T05:23:59;70640.59;;;3.01;100.00
3160;BME280;1591;51.486;7.146;2022-11-14T05:26:27;70641.16;;;3.02;100.00
3160;BME280;1591;51.486;7.146;2022-11-14T05:28:55;70627.00;;;2.92;100.00
3160;BME280;1591;51.486;7.146;2022-11-14T05:31:22;70631.25;;;2.91;100.00
3160;BME280;1591;51.486;7.146;2022-11-14T05:33:50;70618.00;;;2.86;100.00
3160;BME280;1591;51.486;7.146;2022-11-14T05:36:17;70618.41;;;2.84;100.00
3160;BME280;1591;51.486;7.146;2022-11-14T05:38:44;70619.53;;;2.85;100.00
3160;BME280;1591;51.486;7.146;2022-11-14T05:41:13;70618.41;;;2.84;100.00
3160;BME280;1591;51.486;7.146;2022-11-14T05:43:43;70619.94;;;2.83;100.00
3160;BME280;1591;51.486;7.146;2022-11-14T05:46:13;70617.25;;;2.83;100.00
3160;BME280;1591;51.486;7.146;2022-11-14T05:48:41;70627.41;;;2.90;100.00
3160;BME280;1591;51.486;7.146;2022-11-14T05:51:11;70622.00;;;2.90;100.00
3160;BME280;1591;51.486;7.146;2022-11-14T05:53:39;70623.97;;;2.87;100.00
3160;BME280;1591;51.486;7.146;2022-11-14T05:56:11;70617.44;;;2.86;100.00
3160;BME280;1591;51.486;7.146;2022-11-14T05:58:41;70619.53;;;2.85;100.00
3160;BME280;1591;51.486;7.146;2022-11-14T06:01:10;70624.94;;;2.85;100.00
3160;BME280;1591;51.486;7.146;2022-11-14T06:03:41;70622.25;;;2.85;100.00
3160;BME280;1591;51.486;7.146;2022-11-14T06:06:12;70623.97;;;2.87;100.00
3160;BME280;1591;51.486;7.146;2022-11-14T06:08:44;70618.41;;;2.84;100.00
3160;BME280;1591;51.486;7.146;2022-11-14T06:11:14;70614.97;;;2.81;100.00
3160;BME280;1591;51.486;7.146;2022-11-14T06:13:46;70613.25;;;2.80;100.00
3160;BME280;1591;51.486;7.146;2022-11-14T06:16:17;70615.78;;;2.77;100.00
3160;BME280;1591;51.486;7.146;2022-11-14T06:18:45;70620.28;;;2.88;100.00
3160;BME280;1591;51.486;7.146;2022-11-14T06:21:14;70628.72;;;2.93;100.00
3160;BME280;1591;51.486;7.146;2022-11-14T06:23:43;70676.28;;;3.35;100.00
3160;BME280;1591;51.486;7.146;2022-11-14T06:26:18;70773.59;;;4.18;100.00
3160;BME280;1591;51.486;7.146;2022-11-14T06:28:48;70829.50;;;4.79;100.00
3160;BME280;1591;51.486;7.146;2022-11-14T06:31:16;70890.84;;;5.23;100.00
3160;BME280;1591;51.486;7.146;2022-11-14T06:33:44;70929.31;;;5.57;100.00
3160;BME280;1591;51.486;7.146;2022-11-14T06:36:12;70965.69;;;5.91;100.00
3160;BME280;1591;51.486;7.146;2022-11-14T06:38:41;70990.81;;;6.11;100.00
3160;BME280;1591;51.486;7.146;2022-11-14T06:41:12;71007.53;;;6.35;100.00
3160;BME280;1591;51.486;7.146;2022-11-14T06:43:42;71038.09;;;6.55;100.00
3160;BME280;1591;51.486;7.146;2022-11-14T06:46:14;71052.88;;;6.65;100.00
3160;BME280;1591;51.486;7.146;2022-11-14T06:48:44;71063.38;;;6.77;100.00
3160;BME280;1591;51.486;7.146;2022-11-14T06:51:14;71066.34;;;6.89;100.00
3160;BME280;1591;51.486;7.146;2022-11-14T06:53:42;71153.28;;;6.91;100.00
3160;BME280;1591;51.486;7.146;2022-11-14T06:56:11;71134.56;;;6.87;100.00
3160;BME280;1591;51.486;7.146;2022-11-14T06:58:42;71090.06;;;6.95;100.00
3160;BME280;1591;51.486;7.146;2022-11-14T07:01:14;71079.56;;;7.00;100.00
3160;BME280;1591;51.486;7.146;2022-11-14T07:03:42;71098.47;;;7.07;100.00
3160;BME280;1591;51.486;7.146;2022-11-14T07:06:14;71092.63;;;7.09;100.00
3160;BME280;1591;51.486;7.146;2022-11-14T07:08:41;71088.16;;;7.08;100.00
3160;BME280;1591;51.486;7.146;2022-11-14T07:11:10;71101.72;;;7.08;100.00
3160;BME280;1591;51.486;7.146;2022-11-14T07:13:47;71151.97;;;7.04;100.00
3160;BME280;1591;51.486;7.146;2022-11-14T07:16:16;71173.09;;;7.20;100.00
3160;BME280;1591;51.486;7.146;2022-11-14T07:18:43;71192.19;;;7.30;100.00
3160;BME280;1591;51.486;7.146;2022-11-14T07:21:11;71131.22;;;7.36;100.00
3160;BME280;1591;51.486;7.146;2022-11-14T07:23:41;71129.94;;;7.33;100.00
3160;BME280;1591;51.486;7.146;2022-11-14T07:26:10;71135.66;;;7.38;100.00
3160;BME280;1591;51.486;7.146;2022-11-14T07:28:39;71208.00;;;7.39;100.00
3160;BME280;1591;51.486;7.146;2022-11-14T07:31:08;71191.53;;;7.37;100.00
3160;BME280;1591;51.486;7.146;2022-11-14T07:33:39;71139.28;;;7.43;100.00
3160;BME280;1591;51.486;7.146;2022-11-14T07:36:07;71127.44;;;7.45;100.00
3160;BME280;1591;51.486;7.146;2022-11-14T07:38:35;71136.59;;;7.43;100.00
3160;BME280;1591;51.486;7.146;2022-11-14T07:41:05;71203.31;;;7.42;100.00
3160;BME280;1591;51.486;7.146;2022-11-14T07:43:33;71144.47;;;7.48;100.00
3160;BME280;1591;51.486;7.146;2022-11-14T07:46:00;71154.66;;;7.54;100.00
3160;BME280;1591;51.486;7.146;2022-11-14T07:48:28;71228.72;;;7.57;100.00
3160;BME280;1591;51.486;7.146;2022-11-14T07:50:59;71165.59;;;7.64;100.00
3160;BME280;1591;51.486;7.146;2022-11-14T07:53:26;71165.00;;;7.63;100.00
3160;BME280;1591;51.486;7.146;2022-11-14T07:55:53;71163.28;;;7.62;100.00
3160;BME280;1591;51.486;7.146;2022-11-14T07:58:22;71159.59;;;7.63;100.00
3160;BME280;1591;51.486;7.146;2022-11-14T08:00:50;71170.78;;;7.68;100.00
3160;BME280;1591;51.486;7.146;2022-11-14T08:03:17;71167.31;;;7.65;100.00
3160;BME280;1591;51.486;7.146;2022-11-14T08:05:46;71168.06;;;7.68;100.00
3160;BME280;1591;51.486;7.146;2022-11-14T08:08:14;71173.81;;;7.73;100.00
3160;BME280;1591;51.486;7.146;2022-11-14T08:10:41;71172.66;;;7.72;100.00
3160;BME280;1591;51.486;7.146;2022-11-14T08:13:10;71178.97;;;7.78;100.00
3160;BME280;1591;51.486;7.146;2022-11-14T08:15:37;71179.72;;;7.81;100.00
3160;BME280;1591;51.486;7.146;2022-11-14T08:18:04;71257.09;;;7.84;100.00
3160;BME280;1591;51.486;7.146;2022-11-14T08:20:31;71262.72;;;7.87;100.00
3160;BME280;1591;51.486;7.146;2022-11-14T08:23:02;71253.56;;;7.88;100.00
3160;BME280;1591;51.486;7.146;2022-11-14T08:25:31;71196.66;;;7.91;100.00
3160;BME280;1591;51.486;7.146;2022-11-14T08:27:58;71265.59;;;7.89;100.00
3160;BME280;1591;51.486;7.146;2022-11-14T08:30:25;71203.97;;;7.95;100.00
3160;BME280;1591;51.486;7.146;2022-11-14T08:32:52;71199.44;;;8.00;100.00
3160;BME280;1591;51.486;7.146;2022-11-14T08:35:21;71209.81;;;8.10;100.00
3160;BME280;1591;51.486;7.146;2022-11-14T08:37:48;71225.28;;;8.14;100.00
3160;BME280;1591;51.486;7.146;2022-11-14T08:40:15;71230.97;;;8.26;100.00
3160;BME280;1591;51.486;7.146;2022-11-14T08:42:44;71242.00;;;8.28;100.00
3160;BME280;1591;51.486;7.146;2022-11-14T08:45:11;71244.47;;;8.33;100.00
3160;BME280;1591;51.486;7.146;2022-11-14T08:47:38;71244.22;;;8.37;100.00
3160;BME280;1591;51.486;7.146;2022-11-14T08:50:05;71254.84;;;8.42;100.00
3160;BME280;1591;51.486;7.146;2022-11-14T08:52:32;71313.09;;;8.43;100.00
3160;BME280;1591;51.486;7.146;2022-11-14T08:54:59;71259.75;;;8.51;100.00
3160;BME280;1591;51.486;7.146;2022-11-14T08:57:27;71263.78;;;8.54;100.00
3160;BME280;1591;51.486;7.146;2022-11-14T08:59:55;71277.69;;;8.59;100.00
3160;BME280;1591;51.486;7.146;2022-11-14T09:02:22;71330.78;;;8.56;100.00
3160;BME280;1591;51.486;7.146;2022-11-14T09:04:49;71326.19;;;8.52;100.00
3160;BME280;1591;51.486;7.146;2022-11-14T09:07:16;71279.56;;;8.63;100.00
3160;BME280;1591;51.486;7.146;2022-11-14T09:09:43;71332.50;;;8.57;100.00
3160;BME280;1591;51.486;7.146;2022-11-14T09:12:10;71273.97;;;8.61;100.00
3160;BME280;1591;51.486;7.146;2022-11-14T09:14:36;71335.81;;;8.58;100.00
3160;BME280;1591;51.486;7.146;2022-11-14T09:17:05;71271.53;;;8.56;100.00
3160;BME280;1591;51.486;7.146;2022-11-14T09:19:32;71263.94;;;8.57;100.00
3160;BME280;1591;51.486;7.146;2022-11-14T09:22:00;71341.91;;;8.68;100.00
3160;BME280;1591;51.486;7.146;2022-11-14T09:24:27;71364.13;;;8.75;100.00
3160;BME280;1591;51.486;7.146;2022-11-14T09:26:55;71377.00;;;8.89;100.00
3160;BME280;1591;51.486;7.146;2022-11-14T09:29:22;71386.22;;;8.97;100.00
3160;BME280;1591;51.486;7.146;2022-11-14T09:31:51;71302.84;;;8.96;100.00
3160;BME280;1591;51.486;7.146;2022-11-14T09:34:21;71366.84;;;8.92;100.00
3160;BME280;1591;51.486;7.146;2022-11-14T09:36:48;71382.03;;;8.91;100.00
3160;BME280;1591;51.486;7.146;2022-11-14T09:39:16;71312.41;;;8.92;100.00
3160;BME280;1591;51.486;7.146;2022-11-14T09:42:00;71323.78;;;9.00;100.00
3160;BME280;1591;51.486;7.146;2022-11-14T09:44:42;71313.63;;;9.03;100.00
3160;BME280;1591;51.486;7.146;2022-11-14T09:47:15;71316.50;;;9.05;100.00
3160;BME280;1591;51.486;7.146;2022-11-14T09:49:49;71336.03;;;9.13;100.00
3160;BME280;1591;51.486;7.146;2022-11-14T09:52:29;71410.91;;;9.26;100.00
3160;BME280;1591;51.486;7.146;2022-11-14T09:54:59;71415.25;;;9.34;100.00
3160;BME280;1591;51.486;7.146;2022-11-14T09:57:29;71353.47;;;9.30;100.00
3160;BME280;1591;51.486;7.146;2022-11-14T09:59:56;71431.06;;;9.34;100.00
3160;BME280;1591;51.486;7.146;2022-11-14T10:02:39;71407.94;;;9.30;100.00
3160;BME280;1591;51.486;7.146;2022-11-14T10:05:35;71404.91;;;9.25;100.00
3160;BME280;1591;51.486;7.146;2022-11-14T10:08:29;71330.47;;;9.20;100.00
3160;BME280;1591;51.486;7.146;2022-11-14T10:11:06;71329.50;;;9.21;100.00
3160;BME280;1591;51.486;7.146;2022-11-14T10:13:56;71328.13;;;9.08;100.00
3160;BME280;1591;51.486;7.146;2022-11-14T10:16:34;71391.16;;;9.06;100.00
3160;BME280;1591;51.486;7.146;2022-11-14T10:19:17;71379.44;;;9.10;100.00
3160;BME280;1591;51.486;7.146;2022-11-14T10:22:04;71335.06;;;9.24;100.00
3160;BME280;1591;51.486;7.146;2022-11-14T10:25:12;71338.13;;;9.29;100.00
3160;BME280;1591;51.486;7.146;2022-11-14T10:27:59;71344.72;;;9.30;100.00
3160;BME280;1591;51.486;7.146;2022-11-14T10:30:37;71353.53;;;9.40;100.00
3160;BME280;1591;51.486;7.146;2022-11-14T10:33:26;71435.00;;;9.44;100.00
3160;BME280;1591;51.486;7.146;2022-11-14T10:36:06;71439.44;;;9.46;100.00
3160;BME280;1591;51.486;7.146;2022-11-14T10:38:45;71445.34;;;9.53;100.00
3160;BME280;1591;51.486;7.146;2022-11-14T10:41:15;71459.88;;;9.59;100.00
3160;BME280;1591;51.486;7.146;2022-11-14T10:43:45;71445.69;;;9.58;100.00
3160;BME280;1591;51.486;7.146;2022-11-14T10:46:18;71440.31;;;9.51;100.00
3160;BME280;1591;51.486;7.146;2022-11-14T10:48:49;71376.53;;;9.50;100.00
3160;BME280;1591;51.486;7.146;2022-11-14T10:51:21;71442.47;;;9.51;100.00
3160;BME280;1591;51.486;7.146;2022-11-14T10:53:56;71437.59;;;9.51;100.00
3160;BME280;1591;51.486;7.146;2022-11-14T10:56:25;71373.38;;;9.52;100.00
3160;BME280;1591;51.486;7.146;2022-11-14T10:58:52;71367.59;;;9.47;100.00
3160;BME280;1591;51.486;7.146;2022-11-14T11:01:35;71434.00;;;9.46;100.00
3160;BME280;1591;51.486;7.146;2022-11-14T11:04:25;71381.13;;;9.54;100.00
3160;BME280;1591;51.486;7.146;2022-11-14T11:06:54;71436.94;;;9.58;100.00
3160;BME280;1591;51.486;7.146;2022-11-14T11:09:25;71393.69;;;9.73;100.00
3160;BME280;1591;51.486;7.146;2022-11-14T11:12:15;71460.56;;;9.79;100.00
3160;BME280;1591;51.486;7.146;2022-11-14T11:14:45;71471.22;;;9.83;100.00
3160;BME280;1591;51.486;7.146;2022-11-14T11:17:20;71410.41;;;9.87;100.00
3160;BME280;1591;51.486;7.146;2022-11-14T11:19:48;71490.50;;;9.95;100.00
3160;BME280;1591;51.486;7.146;2022-11-14T11:22:36;71503.78;;;10.07;100.00
3160;BME280;1591;51.486;7.146;2022-11-14T11:25:23;71510.75;;;10.13;100.00
3160;BME280;1591;51.486;7.146;2022-11-14T11:28:06;71519.44;;;10.30;100.00
3160;BME280;1591;51.486;7.146;2022-11-14T11:30:34;71530.19;;;10.27;100.00
3160;BME280;1591;51.486;7.146;2022-11-14T11:33:23;71521.59;;;10.29;100.00
3160;BME280;1591;51.486;7.146;2022-11-14T11:35:54;71470.78;;;10.28;100.00
3160;BME280;1591;51.486;7.146;2022-11-14T11:38:24;71532.34;;;10.27;100.00
3160;BME280;1591;51.486;7.146;2022-11-14T11:41:04;71527.63;;;10.30;100.00
3160;BME280;1591;51.486;7.146;2022-11-14T11:43:40;71469.34;;;10.31;100.00
3160;BME280;1591;51.486;7.146;2022-11-14T11:46:14;71501.63;;;10.24;100.00
3160;BME280;1591;51.486;7.146;2022-11-14T11:48:47;71519.13;;;10.25;100.00
3160;BME280;1591;51.486;7.146;2022-11-14T11:51:19;71500.56;;;10.16;100.00
3160;BME280;1591;51.486;7.146;2022-11-14T11:53:57;71436.31;;;10.00;100.00
3160;BME280;1591;51.486;7.146;2022-11-14T11:56:30;71480.59;;;9.94;100.00
3160;BME280;1591;51.486;7.146;2022-11-14T11:59:18;71416.28;;;9.85;100.00
3160;BME280;1591;51.486;7.146;2022-11-14T12:01:48;71476.25;;;9.85;100.00
3160;BME280;1591;51.486;7.146;2022-11-14T12:04:16;71477.56;;;9.89;100.00
3160;BME280;1591;51.486;7.146;2022-11-14T12:06:46;71481.53;;;9.83;100.00
3160;BME280;1591;51.486;7.146;2022-11-14T12:09:20;71417.44;;;9.86;100.00
3160;BME280;1591;51.486;7.146;2022-11-14T12:11:55;71473.44;;;9.92;100.00
3160;BME280;1591;51.486;7.146;2022-11-14T12:14:39;71486.81;;;9.97;100.00
3160;BME280;1591;51.486;7.146;2022-11-14T12:17:47;71495.81;;;9.93;100.00
3160;BME280;1591;51.486;7.146;2022-11-14T12:20:38;71478.47;;;9.94;100.00
3160;BME280;1591;51.486;7.146;2022-11-14T12:23:43;71502.88;;;10.01;100.00
3160;BME280;1591;51.486;7.146;2022-11-14T12:26:29;71501.66;;;10.07;100.00
3160;BME280;1591;51.486;7.146;2022-11-14T12:29:34;71509.16;;;10.14;100.00
3160;BME280;1591;51.486;7.146;2022-11-14T12:32:12;71511.94;;;10.23;100.00
3160;BME280;1591;51.486;7.146;2022-11-14T12:34:42;71522.91;;;10.33;100.00
3160;BME280;1591;51.486;7.146;2022-11-14T12:37:16;71535.19;;;10.46;100.00
3160;BME280;1591;51.486;7.146;2022-11-14T12:39:55;71551.47;;;10.53;100.00
3160;BME280;1591;51.486;7.146;2022-11-14T12:42:23;71576.81;;;10.66;100.00
3160;BME280;1591;51.486;7.146;2022-11-14T12:44:51;71589.19;;;10.72;100.00
3160;BME280;1591;51.486;7.146;2022-11-14T12:47:21;71583.47;;;10.76;100.00
3160;BME280;1591;51.486;7.146;2022-11-14T12:50:31;71578.06;;;10.86;100.00
3160;BME280;1591;51.486;7.146;2022-11-14T12:53:43;71583.94;;;10.84;100.00
3160;BME280;1591;51.486;7.146;2022-11-14T12:59:27;71529.16;;;10.81;100.00
3160;BME280;1591;51.486;7.146;2022-11-14T13:02:25;71575.28;;;10.76;100.00
3160;BME280;1591;51.486;7.146;2022-11-14T13:05:24;71574.81;;;10.69;100.00
3160;BME280;1591;51.486;7.146;2022-11-14T13:08:11;71566.31;;;10.64;100.00
3160;BME280;1591;51.486;7.146;2022-11-14T13:10:42;71563.84;;;10.59;100.00
3160;BME280;1591;51.486;7.146;2022-11-14T13:13:11;71564.00;;;10.62;100.00
3160;BME280;1591;51.486;7.146;2022-11-14T13:15:57;71570.59;;;10.63;100.00
3160;BME280;1591;51.486;7.146;2022-11-14T13:18:56;71509.56;;;10.64;100.00
3160;BME280;1591;51.486;7.146;2022-11-14T13:22:22;71584.31;;;10.72;100.00
3160;BME280;1591;51.486;7.146;2022-11-14T13:25:20;71524.13;;;10.79;100.00
3160;BME280;1591;51.486;7.146;2022-11-14T13:27:47;71583.91;;;10.74;100.00
3160;BME280;1591;51.486;7.146;2022-11-14T13:30:15;71586.63;;;10.74;100.00
3160;BME280;1591;51.486;7.146;2022-11-14T13:32:57;71586.63;;;10.74;100.00
3160;BME280;1591;51.486;7.146;2022-11-14T13:35:43;71569.41;;;10.78;100.00
3160;BME280;1591;51.486;7.146;2022-11-14T13:42:01;71598.38;;;10.96;100.00
3160;BME280;1591;51.486;7.146;2022-11-14T13:45:18;71599.53;;;10.97;100.00
3160;BME280;1591;51.486;7.146;2022-11-14T13:51:31;71550.94;;;10.98;100.00
3160;BME280;1591;51.486;7.146;2022-11-14T13:53:58;71534.09;;;10.90;100.00
3160;BME280;1591;51.486;7.146;2022-11-14T13:56:36;71513.78;;;10.80;100.00